Flight Track Log - Related Links

Times and Time Zones

All times are in EDT time to prevent confusion due to time zone crossing. See the N589H flight status page for this flight to view local times or setup timezone preferences in your user account.

Time Position Orientation Groundspeed Altitude Reporting Facility
EDT Latitude Longitude Course Direction KTS MPH feet Rate Location/Type
Mon 10:07:39 AM 27.9333 -82.7000 330° Northwest 147 169 600  Level Tampa TRACON
Mon 10:09:03 AM 27.9833 -82.7333 330° Northwest 181 208 3,200 1,986 Climbing Tampa TRACON
Mon 10:09:58 AM 27.9667 -82.7667 240° Southwest 169 194 5,200 2,056 Climbing Tampa TRACON
Mon 10:10:51 AM 27.9167 -82.7500 164° South 197 227 6,900 1,592 Climbing Tampa TRACON
Mon 10:13:14 AM 27.7753 -82.6975 162° South 254 292 10,400 1,478 Climbing Miami Center
Mon 10:14:14 AM 27.7211 -82.6383 136° Southeast 262 302 11,900 1,550 Climbing Miami Center
Mon 10:15:14 AM 27.6675 -82.5747 134° Southeast 274 315 13,500 1,550 Climbing Miami Center
Mon 10:16:14 AM 27.6114 -82.5133 136° Southeast 279 321 15,000 1,550 Climbing Miami Center
Mon 10:17:14 AM 27.5575 -82.4500 134° Southeast 279 321 16,600 1,600 Climbing Miami Center
Mon 10:18:14 AM 27.4978 -82.3767 133° Southeast 279 321 18,200 1,550 Climbing Miami Center
Mon 10:19:14 AM 27.4481 -82.3136 132° Southeast 284 327 19,700 1,700 Climbing Miami Center
Mon 10:20:14 AM 27.4003 -82.2506 130° Southeast 277 319 21,600 1,900 Climbing Miami Center
Mon 10:21:14 AM 27.3522 -82.1969 135° Southeast 271 312 23,500 1,750 Climbing Miami Center
Mon 10:22:14 AM 27.3192 -82.1275 118° Southeast 263 303 25,100 1,400 Climbing Miami Center
Mon 10:23:14 AM 27.2783 -82.0464 120° Southeast 263 303 26,300 1,150 Climbing Miami Center
Mon 10:24:14 AM 27.2500 -81.9608 110° East 279 321 27,400 850 Climbing Miami Center
Mon 10:25:14 AM 27.2822 -81.8806 66° East 280 322 28,000 300 Climbing Miami Center
Mon 10:26:14 AM 27.3511 -81.8183 39° Northeast 284 327 28,000  Level Miami Center
Mon 10:27:14 AM 27.4269 -81.7350 44° Northeast 332 382 28,000  Level Miami Center
Mon 10:28:14 AM 27.4161 -81.6222 96° East 325 374 28,000  Level Miami Center
Mon 10:29:14 AM 27.3694 -81.5153 116° Southeast 323 372 28,000  Level Miami Center
Mon 10:30:14 AM 27.3203 -81.4244 121° Southeast 360 414 28,000 600 Level Miami Center
Mon 10:31:14 AM 27.2653 -81.3100 118° Southeast 375 432 29,200 1,200 Climbing Miami Center
Mon 10:32:14 AM 27.2161 -81.2147 120° Southeast 375 432 30,400 1,150 Climbing Miami Center
Mon 10:33:14 AM 27.1667 -81.1219 121° Southeast 359 413 31,500 1,050 Climbing Miami Center
Mon 10:34:14 AM 27.1231 -81.0408 121° Southeast 353 406 32,500 900 Climbing Miami Center
Mon 10:35:14 AM 27.0775 -80.9531 120° Southeast 342 394 33,300 700 Climbing Miami Center
Mon 10:36:14 AM 27.0322 -80.8606 119° Southeast 336 387 33,900 650 Climbing Miami Center
Mon 10:37:14 AM 26.9844 -80.7725 121° Southeast 336 387 34,600 550 Climbing Miami Center
Mon 10:38:14 AM 26.9367 -80.6803 120° Southeast 336 387 35,000 200 Climbing Miami Center
Mon 10:39:14 AM 26.8892 -80.5856 119° Southeast 341 392 35,000  Level Miami Center
Mon 10:40:14 AM 26.8353 -80.4861 121° Southeast 352 405 35,000  Level Miami Center
Mon 10:41:14 AM 26.7753 -80.3747 121° Southeast 376 433 35,000  Level Miami Center
Mon 10:42:14 AM 26.7275 -80.2803 120° Southeast 381 438 35,000  Level Miami Center
Mon 10:43:14 AM 26.6736 -80.1742 120° Southeast 388 447 35,000  Level Miami Center
Mon 10:44:14 AM 26.6114 -80.0564 121° Southeast 388 447 35,000  Level Miami Center
Mon 10:45:14 AM 26.5614 -79.9597 120° Southeast 394 453 35,000  Level Miami Center
Mon 10:46:14 AM 26.4969 -79.8397 121° Southeast 404 465 35,000  Level Miami Center
Mon 10:47:14 AM 26.4447 -79.7431 121° Southeast 409 471 35,000  Level Miami Center
Mon 10:48:14 AM 26.3822 -79.6256 121° Southeast 409 471 35,000  Level Miami Center
Mon 10:49:14 AM 26.3297 -79.5272 121° Southeast 409 471 35,000  Level Miami Center
Mon 10:50:14 AM 26.2669 -79.4053 120° Southeast 409 471 35,000  Level Miami Center
Mon 10:51:14 AM 26.2103 -79.2975 120° Southeast 409 471 35,000  Level Miami Center
Mon 10:52:14 AM 26.1536 -79.1922 121° Southeast 409 471 35,000  Level Miami Center
Mon 10:53:14 AM 26.0967 -79.0869 121° Southeast 404 465 35,000  Level Miami Center
Mon 10:54:14 AM 26.0419 -78.9842 121° Southeast 399 459 35,000  Level Miami Center
Mon 10:55:14 AM 25.9908 -78.8931 122° Southeast 394 453 35,000  Level Miami Center
Mon 10:56:14 AM 25.9358 -78.7883 120° Southeast 394 453 35,000  Level Miami Center
Mon 10:57:15 AM 25.8786 -78.6925 124° Southeast 389 448 35,000  Level Miami Center
Mon 10:58:14 AM 25.8297 -78.5858 117° Southeast 389 448 35,000  Level Miami Center
Mon 10:59:14 AM 25.7725 -78.4881 123° Southeast 389 448 35,000  Level Miami Center
Mon 11:00:14 AM 25.7169 -78.3881 122° Southeast 384 442 35,000  Level Miami Center
Mon 11:01:14 AM 25.6744 -78.2744 113° Southeast 384 442 35,000  Level Miami Center
Mon 11:02:14 AM 25.6061 -78.1908 132° Southeast 378 435 35,000  Level Miami Center
Mon 11:03:14 AM 25.5486 -78.0819 120° Southeast 378 435 35,000  Level Miami Center
Mon 11:04:14 AM 25.4931 -77.9847 122° Southeast 372 428 35,000  Level Miami Center
Mon 11:05:14 AM 25.4394 -77.8828 120° Southeast 367 422 35,000  Level Miami Center
Mon 11:06:14 AM 25.3856 -77.7836 121° Southeast 367 422 35,000  Level Miami Center
Mon 11:07:14 AM 25.3319 -77.6864 121° Southeast 367 422 35,000  Level Miami Center
Mon 11:08:14 AM 25.2781 -77.5850 120° Southeast 372 428 35,000  Level Miami Center
Mon 11:09:14 AM 25.2242 -77.4883 122° Southeast 372 428 35,000  Level Miami Center
Mon 11:10:14 AM 25.1764 -77.3961 120° Southeast 372 428 35,000  Level Miami Center
Mon 11:11:14 AM 25.1203 -77.2972 122° Southeast 377 434 35,000  Level Miami Center
Mon 11:12:14 AM 25.0664 -77.1983 121° Southeast 377 434 35,000  Level Miami Center
Mon 11:13:14 AM 25.0100 -77.0994 122° Southeast 377 434 35,000  Level Miami Center
Mon 11:14:15 AM 24.9536 -77.0008 122° Southeast 377 434 35,000  Level Miami Center
Mon 11:15:14 AM 24.9017 -76.9022 120° Southeast 377 434 35,000  Level Miami Center
Mon 11:16:14 AM 24.8431 -76.8039 123° Southeast 377 434 35,000  Level Miami Center
Mon 11:17:14 AM 24.7886 -76.7056 121° Southeast 377 434 35,000  Level Miami Center
Mon 11:18:14 AM 24.7300 -76.6003 121° Southeast 377 434 35,000  Level Miami Center
Mon 11:19:14 AM 24.6733 -76.4997 122° Southeast 377 434 35,000  Level Miami Center
Mon 11:20:14 AM 24.6186 -76.3994 121° Southeast 377 434 35,000  Level Miami Center
Mon 11:21:14 AM 24.5661 -76.3014 120° Southeast 377 434 35,000  Level Miami Center
Mon 11:22:14 AM 24.5092 -76.2056 123° Southeast 382 440 35,000  Level Miami Center
Mon 11:23:14 AM 24.4544 -76.1100 122° Southeast 377 434 35,000  Level Miami Center
Mon 11:24:14 AM 24.3997 -76.0122 122° Southeast 377 434 35,000  Level Miami Center
Mon 11:25:14 AM 24.3447 -75.9122 121° Southeast 377 434 35,000  Level Miami Center
Mon 11:26:14 AM 24.2897 -75.8169 122° Southeast 377 434 35,000  Level Miami Center
Mon 11:27:14 AM 24.2347 -75.7217 122° Southeast 377 434 35,000  Level Miami Center
Mon 11:28:14 AM 24.1817 -75.6242 121° Southeast 377 434 35,000  Level Miami Center
Mon 11:29:14 AM 24.1264 -75.5292 123° Southeast 377 434 35,000  Level Miami Center
Mon 11:30:14 AM 24.0711 -75.4319 122° Southeast 377 434 35,000  Level Miami Center
Mon 11:31:14 AM 24.0286 -75.3572 122° Southeast 372 428 35,000  Level Miami Center
Mon 11:32:14 AM 23.9692 -75.2511 121° Southeast 372 428 35,000  Level Miami Center
Mon 11:33:14 AM 23.9117 -75.1564 124° Southeast 372 428 35,000  Level Miami Center
Mon 11:34:14 AM 23.8583 -75.0617 122° Southeast 367 422 35,000  Level Miami Center
Mon 11:35:14 AM 23.8131 -74.9600 116° Southeast 367 422 35,000  Level Miami Center
Mon 11:36:14 AM 23.7658 -74.8564 116° Southeast 372 428 35,000  Level Miami Center
Mon 11:37:14 AM 23.7183 -74.7572 118° Southeast 372 428 35,000  Level Miami Center
Mon 11:38:14 AM 23.6731 -74.6561 116° Southeast 366 421 35,000  Level Miami Center
Mon 11:39:14 AM 23.6256 -74.5547 117° Southeast 366 421 35,000  Level Miami Center
Mon 11:40:14 AM 23.5800 -74.4536 116° Southeast 366 421 35,000  Level Miami Center
Mon 11:41:14 AM 23.5303 -74.3547 119° Southeast 366 421 35,000  Level Miami Center
Mon 11:42:14 AM 23.4828 -74.2539 117° Southeast 366 421 35,000  Level Miami Center
Mon 11:43:14 AM 23.4350 -74.1531 117° Southeast 366 421 35,000  Level Miami Center
Mon 11:44:14 AM 23.3850 -74.0522 118° Southeast 366 421 35,000  Level Miami Center
Mon 11:45:15 AM 23.3414 -73.9536 116° Southeast 366 421 35,000  Level Miami Center
Mon 11:46:14 AM 23.2914 -73.8531 118° Southeast 361 415 35,000  Level Miami Center
Mon 11:47:14 AM 23.2433 -73.7547 118° Southeast 361 415 35,000  Level Miami Center
Mon 11:48:14 AM 23.2017 -73.6539 114° Southeast 361 415 35,000  Level Miami Center
Mon 11:49:14 AM 23.1494 -73.5558 120° Southeast 361 415 35,000  Level Miami Center
Mon 11:50:14 AM 23.1011 -73.4578 118° Southeast 361 415 35,000  Level Miami Center
Mon 11:51:14 AM 23.0572 -73.3597 116° Southeast 361 415 35,000  Level Miami Center
Mon 11:52:14 AM 23.0089 -73.2594 118° Southeast 361 415 35,000  Level Miami Center
Mon 11:53:14 AM 22.9606 -73.1639 119° Southeast 361 415 35,000  Level Miami Center
Mon 11:54:14 AM 22.9122 -73.0636 118° Southeast 361 415 35,000  Level Miami Center
Mon 11:55:14 AM 22.8658 -72.9683 118° Southeast 361 415 35,000  Level Miami Center
Mon 11:56:14 AM 22.8264 -72.8906 119° Southeast 361 415 35,000  Level Miami Center
Mon 11:57:14 AM 22.7689 -72.7708 117° Southeast 366 421 35,000  Level Miami Center
Mon 11:58:14 AM 22.7200 -72.6711 118° Southeast 366 421 35,000  Level Miami Center
Mon 11:59:14 AM 22.6736 -72.5736 117° Southeast 361 415 35,000  Level Miami Center
Mon 12:00:14 PM 22.6267 -72.4739 117° Southeast 366 421 35,000  Level Miami Center
Mon 12:01:14 PM 22.5761 -72.3789 120° Southeast 361 415 35,000  Level Miami Center
Mon 12:02:14 PM 22.5292 -72.2794 117° Southeast 361 415 35,000  Level Miami Center
Mon 12:03:14 PM 22.4844 -72.1844 117° Southeast 361 415 35,000  Level Miami Center
Mon 12:04:14 PM 22.4375 -72.0850 117° Southeast 361 415 35,000  Level Miami Center
Mon 12:05:14 PM 22.3886 -71.9903 119° Southeast 361 415 35,000  Level Miami Center
Mon 12:06:14 PM 22.3417 -71.8956 118° Southeast 361 415 35,000  Level Miami Center
Mon 12:07:14 PM 22.2925 -71.7986 119° Southeast 361 415 35,000  Level Miami Center
Mon 12:08:14 PM 22.2456 -71.7042 118° Southeast 361 415 35,000  Level Miami Center
Mon 12:09:15 PM 22.2008 -71.6117 118° Southeast 361 415 35,000  Level Miami Center
Mon 12:10:14 PM 22.1514 -71.5153 119° Southeast 361 415 35,000  Level Miami Center
Mon 12:11:14 PM 22.1042 -71.4186 118° Southeast 361 415 35,000  Level Miami Center
Mon 12:12:14 PM 22.0547 -71.3222 119° Southeast 361 415 35,000  Level Miami Center
Mon 12:13:14 PM 22.0075 -71.2281 118° Southeast 361 415 35,000  Level Miami Center
Mon 12:14:14 PM 21.9600 -71.1317 118° Southeast 361 415 35,000  Level Miami Center
Mon 12:15:14 PM 21.9106 -71.0353 119° Southeast 361 415 35,000  Level Miami Center
Mon 12:16:14 PM 21.8653 -70.9411 117° Southeast 361 415 35,000  Level Miami Center
Mon 12:17:14 PM 21.8178 -70.8450 118° Southeast 361 415 35,000  Level Miami Center
Mon 12:18:14 PM 21.7614 -70.7428 121° Southeast 361 415 35,000  Level Miami Center
Mon 12:19:14 PM 21.7139 -70.6467 118° Southeast 361 415 35,000  Level Miami Center
Mon 12:20:14 PM 21.6661 -70.5531 119° Southeast 361 415 35,000  Level Miami Center
Mon 12:21:14 PM 21.6206 -70.4592 118° Southeast 361 415 35,000  Level Miami Center
Mon 12:22:14 PM 21.5706 -70.3636 119° Southeast 361 415 35,000  Level Miami Center
Mon 12:23:14 PM 21.5250 -70.2700 118° Southeast 361 415 35,000  Level Miami Center
Mon 12:24:14 PM 21.4750 -70.1767 120° Southeast 356 410 35,000  Level Miami Center
Mon 12:25:14 PM 21.4292 -70.0833 118° Southeast 361 415 35,000  Level Miami Center
Mon 12:26:14 PM 21.3814 -69.9878 118° Southeast 361 415 35,000  Level Miami Center
Mon 12:27:15 PM 21.3333 -69.8922 118° Southeast 361 415 35,000  Level Miami Center
Mon 12:28:14 PM 21.2831 -69.7992 120° Southeast 361 415 35,000  Level Miami Center
Mon 12:29:14 PM 21.2350 -69.7061 119° Southeast 361 415 35,000  Level Miami Center
Mon 12:30:14 PM 21.1869 -69.6131 119° Southeast 361 415 35,000  Level Miami Center
Mon 12:31:14 PM 21.1428 -69.5200 117° Southeast 361 415 35,000  Level Miami Center
Mon 12:32:14 PM 21.0947 -69.4250 118° Southeast 361 415 35,000  Level Miami Center
Mon 12:33:14 PM 21.0464 -69.3322 119° Southeast 361 415 35,000  Level Miami Center
Mon 12:34:14 PM 20.9958 -69.2375 120° Southeast 361 415 35,000  Level Miami Center
Mon 12:35:14 PM 20.9456 -69.1450 120° Southeast 361 415 35,000  Level Miami Center
Mon 12:36:14 PM 20.8969 -69.0525 119° Southeast 361 415 35,000  Level Miami Center
Mon 12:37:14 PM 20.8486 -68.9578 119° Southeast 361 415 35,000  Level Miami Center
Mon 12:38:14 PM 20.8022 -68.8650 118° Southeast 361 415 35,000  Level Miami Center
Mon 12:39:14 PM 20.7514 -68.7686 119° Southeast 361 415 35,000  Level Miami Center
Mon 12:40:14 PM 20.7047 -68.6739 118° Southeast 361 415 35,000  Level Miami Center
Mon 12:41:14 PM 20.6558 -68.5794 119° Southeast 361 415 35,000  Level Miami Center
Mon 12:42:14 PM 20.6053 -68.4875 120° Southeast 361 415 35,000  Level Miami Center
Mon 12:43:14 PM 20.5586 -68.3953 118° Southeast 361 415 35,000  Level Miami Center
Mon 12:44:14 PM 20.5172 -68.3228 121° Southeast 361 415 35,000  Level Miami Center
Mon 12:45:14 PM 20.4569 -68.2117 120° Southeast 361 415 35,000  Level Miami Center
Mon 12:46:14 PM 20.4100 -68.1197 119° Southeast 356 410 35,000  Level Miami Center
Mon 12:47:14 PM 20.3611 -68.0258 119° Southeast 356 410 35,000  Level Miami Center
Mon 12:48:14 PM 20.3142 -67.9342 119° Southeast 361 415 35,000  Level Miami Center
Mon 12:49:14 PM 20.2631 -67.8425 121° Southeast 361 415 35,000  Level Miami Center
Mon 12:49:44 PM 20.2333 -67.7833 118° Southeast 360 414 35,000  Level San Juan Center
Mon 12:50:44 PM 20.1833 -67.7000 123° Southeast 360 414 35,000  Level San Juan Center
Mon 12:51:45 PM 20.1167 -67.6167 130° Southeast 350 403 35,000  Level San Juan Center
Mon 12:52:45 PM 20.0833 -67.5167 110° East 350 403 35,000  Level San Juan Center
Mon 12:53:45 PM 20.0333 -67.4333 123° Southeast 350 403 35,000  Level San Juan Center
Mon 12:54:46 PM 19.9833 -67.3333 118° Southeast 350 403 35,000  Level San Juan Center
Mon 12:55:46 PM 19.9333 -67.2500 123° Southeast 350 403 35,000  Level San Juan Center
Mon 12:56:46 PM 19.8833 -67.1500 118° Southeast 350 403 35,000  Level San Juan Center
Mon 12:57:47 PM 19.8333 -67.0667 123° Southeast 350 403 35,000  Level San Juan Center
Mon 12:58:47 PM 19.7833 -66.9833 123° Southeast 350 403 35,000  Level San Juan Center
Mon 12:59:48 PM 19.7333 -66.8833 118° Southeast 350 403 35,000  Level San Juan Center
Mon 01:00:48 PM 19.6833 -66.8000 122° Southeast 350 403 35,000  Level San Juan Center
Mon 01:01:48 PM 19.6333 -66.7167 122° Southeast 350 403 35,000  Level San Juan Center
Mon 01:02:49 PM 19.5833 -66.6167 118° Southeast 350 403 35,000  Level San Juan Center
Mon 01:03:49 PM 19.5500 -66.5333 113° Southeast 360 414 35,000  Level San Juan Center
Mon 01:04:50 PM 19.5000 -66.4333 118° Southeast 350 403 35,000  Level San Juan Center
Mon 01:05:50 PM 19.4500 -66.3500 122° Southeast 350 403 35,000  Level San Juan Center
Mon 01:06:50 PM 19.4000 -66.2667 122° Southeast 350 403 35,000  Level San Juan Center
Mon 01:07:51 PM 19.3500 -66.1667 118° Southeast 350 403 35,000  Level San Juan Center
Mon 01:08:51 PM 19.3000 -66.0833 122° Southeast 350 403 35,000 -300 Level San Juan Center
Mon 01:09:51 PM 19.2500 -65.9833 118° Southeast 350 403 34,400 -1,339 Descending San Juan Center
Mon 01:10:52 PM 19.2000 -65.9000 122° Southeast 370 426 32,300 -2,083 Descending San Juan Center
Mon 01:11:52 PM 19.1333 -65.8000 125° Southeast 370 426 30,200 -2,182 Descending San Juan Center
Mon 01:12:53 PM 19.0833 -65.7000 118° Southeast 370 426 27,900 -2,430 Descending San Juan Center
Mon 01:13:53 PM 19.0167 -65.6167 130° Southeast 370 426 25,300 -2,600 Descending San Juan Center
Mon 01:14:53 PM 18.9500 -65.5333 130° Southeast 370 426 22,700 -2,628 Descending San Juan Center
Mon 01:15:54 PM 18.8833 -65.4500 130° Southeast 360 414 20,000 -2,579 Descending San Juan Center
Mon 01:16:54 PM 18.8333 -65.3500 118° Southeast 340 391 17,500 -2,600 Descending San Juan Center
Mon 01:17:54 PM 18.7833 -65.2667 122° Southeast 330 380 14,800 -2,628 Descending San Juan Center
Mon 01:18:55 PM 18.7333 -65.2000 128° Southeast 320 368 12,200 -2,380 Descending San Juan Center
Mon 01:19:55 PM 18.7000 -65.1167 113° Southeast 300 345 10,000 -2,083 Descending San Juan Center
Mon 01:20:56 PM 18.6500 -65.0500 128° Southeast 270 311 8,000 -1,983 Descending San Juan Center
Mon 01:21:56 PM 18.6167 -64.9833 118° Southeast 260 299 6,000 -2,050 Descending San Juan Center
Mon 01:22:56 PM 18.5667 -64.9167 128° Southeast 260 299 3,900 -1,339 Descending San Juan Center
Mon 01:23:57 PM 18.5333 -64.8500 118° Southeast 230 265 3,300 -298 Descending San Juan Center
Mon 01:24:57 PM 18.5167 -64.8000 109° East 200 230 3,300  Level San Juan Center
Mon 01:25:57 PM 18.4833 -64.7500 125° Southeast 190 219 3,300  Level San Juan Center
Mon 01:26:57 PM 18.4667 -64.7000 109° East 170 196 3,300  Level San Juan Center
Mon 01:27:58 PM 18.4667 -64.6667 90° East 140 161 3,300 -397 Level San Juan Center
Mon 01:28:58 PM 18.4500 -64.6333 118° Southeast 120 138 2,500 -793 Descending San Juan Center
Mon 01:29:59 PM 18.4167 -64.6167 155° Southeast 140 161 1,700 -787 Descending San Juan Center
Mon 01:31:00 PM 18.4333 -64.5333 118° Southeast  Level FlightAware Approximate
Mon 01:38:00 PM 18.4448 -64.5430 118° Southeast  Level Estimated
Mon 01:39:00 PM 18.4448 -64.5430 118° Southeast  Level Estimated

Login

Don't have an account? Register now (free) for customized features, flight alerts, and more!